Time;durP1;ratioP1;P1;durP2;ratioP2;P2;SDS_P1;SDS_P2;PMS_P1;PMS_P2;Temp;Humidity;BMP_temperature;BMP_pressure;BME280_temperature;BME280_humidity;BME280_pressure;Samples;Min_cycle;Max_cycle;Signal;HPM_P1;HPM_P2
2023/10/16 00:01:20;;;;;;;0.00;0.00;;;;;;;;;;1724079;28;20589;-76
2023/10/16 00:02:12;;;;;;;0.00;0.00;;;;;;;;;;1725630;28;20219;-76
2023/10/16 00:03:03;;;;;;;0.00;0.00;;;;;;;;;;1725546;28;20250;-76
2023/10/16 00:03:56;;;;;;;0.00;0.00;;;;;;;;;;1725484;28;20196;-76
2023/10/16 00:04:47;;;;;;;0.00;0.00;;;;;;;;;;1726014;28;20253;-76
2023/10/16 00:05:44;;;;;;;0.10;0.10;;;;;;;;;;1725468;28;20212;-76
2023/10/16 00:06:36;;;;;;;0.00;0.00;;;;;;;;;;1726271;28;20251;-76
2023/10/16 00:07:28;;;;;;;0.00;0.00;;;;;;;;;;1723718;28;20228;-76
2023/10/16 00:08:19;;;;;;;0.00;0.00;;;;;;;;;;1725964;28;20227;-76
2023/10/16 00:09:14;;;;;;;0.00;0.00;;;;;;;;;;1725406;28;20205;-76
2023/10/16 00:10:11;;;;;;;0.00;0.00;;;;;;;;;;1726456;28;20300;-76
2023/10/16 00:11:03;;;;;;;0.00;0.00;;;;;;;;;;1723420;28;20260;-76
2023/10/16 00:11:55;;;;;;;0.00;0.00;;;;;;;;;;1725774;28;20227;-76
2023/10/16 00:12:49;;;;;;;0.00;0.00;;;;;;;;;;1724163;28;20251;-76
2023/10/16 00:13:40;;;;;;;0.00;0.00;;;;;;;;;;1725746;28;20255;-76
2023/10/16 00:14:32;;;;;;;0.00;0.00;;;;;;;;;;1725138;28;20693;-76
2023/10/16 00:15:23;;;;;;;0.00;0.00;;;;;;;;;;1726077;28;20701;-76
2023/10/16 00:16:16;;;;;;;0.00;0.00;;;;;;;;;;1724730;28;20258;-76
2023/10/16 00:17:09;;;;;;;0.00;0.00;;;;;;;;;;1725762;28;20636;-76
2023/10/16 00:18:00;;;;;;;0.00;0.00;;;;;;;;;;1724807;28;20236;-76
2023/10/16 00:18:53;;;;;;;0.00;0.00;;;;;;;;;;1725795;28;20200;-76
2023/10/16 00:19:45;;;;;;;0.00;0.00;;;;;;;;;;1725351;28;20236;-76
2023/10/16 00:20:36;;;;;;;0.00;0.00;;;;;;;;;;1724162;28;20228;-76
2023/10/16 00:21:30;;;;;;;0.00;0.00;;;;;;;;;;1725465;28;20238;-76
2023/10/16 00:22:25;;;;;;;0.00;0.00;;;;;;;;;;1724316;28;20539;-76
2023/10/16 00:23:17;;;;;;;0.00;0.00;;;;;;;;;;1725619;28;20274;-76
2023/10/16 00:24:08;;;;;;;0.00;0.00;;;;;;;;;;1724787;28;20219;-76
2023/10/16 00:25:03;;;;;;;0.00;0.00;;;;;;;;;;1725799;28;20530;-76
2023/10/16 00:25:54;;;;;;;0.10;0.10;;;;;;;;;;1723829;28;20213;-76
2023/10/16 00:26:49;;;;;;;0.00;0.00;;;;;;;;;;1726139;28;20307;-76
2023/10/16 00:27:40;;;;;;;0.00;0.00;;;;;;;;;;1723641;28;20550;-76
2023/10/16 00:28:34;;;;;;;0.00;0.00;;;;;;;;;;1725635;28;20261;-76
2023/10/16 00:29:32;;;;;;;0.00;0.00;;;;;;;;;;1725391;28;20235;-75
2023/10/16 00:30:24;;;;;;;0.00;0.00;;;;;;;;;;1724635;28;20239;-75
2023/10/16 00:31:20;;;;;;;0.00;0.00;;;;;;;;;;1723517;28;20578;-75
2023/10/16 00:32:16;;;;;;;0.00;0.00;;;;;;;;;;1725093;28;20270;-75
2023/10/16 00:33:08;;;;;;;0.00;0.00;;;;;;;;;;1725599;28;20204;-75
2023/10/16 00:33:59;;;;;;;0.00;0.00;;;;;;;;;;1724466;28;20212;-75
2023/10/16 00:34:52;;;;;;;0.00;0.00;;;;;;;;;;1724821;28;20214;-75
2023/10/16 00:35:45;;;;;;;0.00;0.00;;;;;;;;;;1724760;28;20208;-75
2023/10/16 00:36:36;;;;;;;0.00;0.00;;;;;;;;;;1724356;28;20196;-75
2023/10/16 00:37:28;;;;;;;0.00;0.00;;;;;;;;;;1723634;28;20200;-75
2023/10/16 00:38:22;;;;;;;0.00;0.00;;;;;;;;;;1723646;28;20208;-75
2023/10/16 00:39:13;;;;;;;0.00;0.00;;;;;;;;;;1723397;28;21307;-75
2023/10/16 00:40:10;;;;;;;0.00;0.00;;;;;;;;;;1725839;28;20215;-75
2023/10/16 00:41:15;;;;;;;0.00;0.00;;;;;;;;;;1723953;28;20649;-75
2023/10/16 00:42:09;;;;;;;0.00;0.00;;;;;;;;;;1725865;28;20323;-75
2023/10/16 00:43:06;;;;;;;0.00;0.00;;;;;;;;;;1724565;28;20219;-75
2023/10/16 00:44:00;;;;;;;0.00;0.00;;;;;;;;;;1725237;28;20573;-75
2023/10/16 00:44:56;;;;;;;0.00;0.00;;;;;;;;;;1722669;28;20232;-75
2023/10/16 00:45:50;;;;;;;0.00;0.00;;;;;;;;;;1721022;28;20505;-75
2023/10/16 00:46:44;;;;;;;0.00;0.00;;;;;;;;;;1725593;28;20761;-75
2023/10/16 00:47:39;;;;;;;0.00;0.00;;;;;;;;;;1723365;28;20278;-75
2023/10/16 00:48:31;;;;;;;0.00;0.00;;;;;;;;;;1727972;28;20585;-75
2023/10/16 00:49:23;;;;;;;0.00;0.00;;;;;;;;;;1725238;28;20669;-75
2023/10/16 00:50:14;;;;;;;0.00;0.00;;;;;;;;;;1725749;28;20319;-76
2023/10/16 00:51:09;;;;;;;0.00;0.00;;;;;;;;;;1724041;28;20266;-76
2023/10/16 00:52:03;;;;;;;0.00;0.00;;;;;;;;;;1725811;28;20201;-76
2023/10/16 00:52:55;;;;;;;0.00;0.00;;;;;;;;;;1722821;28;20935;-76
2023/10/16 00:53:47;;;;;;;0.00;0.00;;;;;;;;;;1725795;28;20200;-76
2023/10/16 00:54:39;;;;;;;0.00;0.00;;;;;;;;;;1725068;28;20700;-76
2023/10/16 00:55:31;;;;;;;0.00;0.00;;;;;;;;;;1725259;28;20270;-76
2023/10/16 00:56:27;;;;;;;0.00;0.00;;;;;;;;;;1724426;28;20247;-76
2023/10/16 00:57:27;;;;;;;0.10;0.10;;;;;;;;;;1724962;28;20208;-76
2023/10/16 00:58:18;;;;;;;0.00;0.00;;;;;;;;;;1725605;28;20200;-76
2023/10/16 00:59:12;;;;;;;0.10;0.10;;;;;;;;;;1724660;28;20235;-76
2023/10/16 01:00:12;;;;;;;0.00;0.00;;;;;;;;;;1727221;28;20676;-76
2023/10/16 01:01:09;;;;;;;0.00;0.00;;;;;;;;;;1725329;28;20208;-76
2023/10/16 01:02:14;;;;;;;0.00;0.00;;;;;;;;;;1727187;28;20280;-76
2023/10/16 01:03:05;;;;;;;0.00;0.00;;;;;;;;;;1725110;28;20207;-76
2023/10/16 01:03:57;;;;;;;0.00;0.00;;;;;;;;;;1726465;28;20204;-76
2023/10/16 01:04:50;;;;;;;0.00;0.00;;;;;;;;;;1726848;28;20263;-76
2023/10/16 01:05:42;;;;;;;0.00;0.00;;;;;;;;;;1726175;28;20216;-76
2023/10/16 01:06:36;;;;;;;0.00;0.00;;;;;;;;;;1727078;28;20200;-76
2023/10/16 01:07:29;;;;;;;0.00;0.00;;;;;;;;;;1724780;28;20204;-76
2023/10/16 01:08:20;;;;;;;0.00;0.00;;;;;;;;;;1725178;28;20211;-76
2023/10/16 01:09:12;;;;;;;0.03;0.03;;;;;;;;;;1726336;28;20204;-77
2023/10/16 01:10:10;;;;;;;0.00;0.00;;;;;;;;;;1727005;28;20215;-76
2023/10/16 01:11:01;;;;;;;0.03;0.03;;;;;;;;;;1725466;28;20493;-76
2023/10/16 01:11:54;;;;;;;0.00;0.00;;;;;;;;;;1727011;28;20200;-76
2023/10/16 01:12:54;;;;;;;0.00;0.00;;;;;;;;;;1724953;28;20213;-76
2023/10/16 01:13:47;;;;;;;0.00;0.00;;;;;;;;;;1726932;28;20315;-76
2023/10/16 01:14:40;;;;;;;0.00;0.00;;;;;;;;;;1725438;28;20219;-76
2023/10/16 01:15:31;;;;;;;0.00;0.00;;;;;;;;;;1727196;28;20657;-76
2023/10/16 01:16:23;;;;;;;0.00;0.00;;;;;;;;;;1725322;28;20544;-76
2023/10/16 01:17:15;;;;;;;0.00;0.00;;;;;;;;;;1726711;28;20250;-76
2023/10/16 01:18:06;;;;;;;0.00;0.00;;;;;;;;;;1725242;28;20553;-76
2023/10/16 01:19:00;;;;;;;0.00;0.00;;;;;;;;;;1726209;28;20510;-76
2023/10/16 01:19:51;;;;;;;0.00;0.00;;;;;;;;;;1726571;28;20303;-76
2023/10/16 01:20:48;;;;;;;0.00;0.00;;;;;;;;;;1726021;28;20675;-76
2023/10/16 01:21:39;;;;;;;0.05;0.05;;;;;;;;;;1726038;28;20208;-76
2023/10/16 01:22:34;;;;;;;0.00;0.00;;;;;;;;;;1724328;28;20634;-76
2023/10/16 01:23:27;;;;;;;0.00;0.00;;;;;;;;;;1726776;28;20271;-76
2023/10/16 01:24:19;;;;;;;0.00;0.00;;;;;;;;;;1724459;28;20255;-76
2023/10/16 01:25:11;;;;;;;0.00;0.00;;;;;;;;;;1726915;28;20227;-78
2023/10/16 01:26:04;;;;;;;0.00;0.00;;;;;;;;;;1725121;28;20200;-76
2023/10/16 01:27:01;;;;;;;0.00;0.00;;;;;;;;;;1727213;28;20275;-76
2023/10/16 01:27:52;;;;;;;0.00;0.00;;;;;;;;;;1724906;28;20188;-76
2023/10/16 01:28:44;;;;;;;0.00;0.00;;;;;;;;;;1726747;28;20645;-75
2023/10/16 01:29:37;;;;;;;0.00;0.00;;;;;;;;;;1724951;28;20669;-75
2023/10/16 01:30:28;;;;;;;0.00;0.00;;;;;;;;;;1726986;28;20208;-75
2023/10/16 01:31:21;;;;;;;0.00;0.00;;;;;;;;;;1725443;28;20278;-75
2023/10/16 01:32:15;;;;;;;0.00;0.00;;;;;;;;;;1726608;28;20622;-75
2023/10/16 01:33:07;;;;;;;0.00;0.00;;;;;;;;;;1725073;28;20219;-75
2023/10/16 01:33:59;;;;;;;0.10;0.10;;;;;;;;;;1725618;28;20203;-76
2023/10/16 01:34:50;;;;;;;0.00;0.00;;;;;;;;;;1725843;28;20243;-76
2023/10/16 01:35:43;;;;;;;0.00;0.00;;;;;;;;;;1726034;28;20242;-76
2023/10/16 01:36:36;;;;;;;0.10;0.10;;;;;;;;;;1724789;28;20474;-76
2023/10/16 01:37:27;;;;;;;0.00;0.00;;;;;;;;;;1724701;28;20208;-76
2023/10/16 01:38:19;;;;;;;0.00;0.00;;;;;;;;;;1726736;28;20262;-76
2023/10/16 01:39:47;;;;;;;0.00;0.00;;;;;;;;;;1725446;28;20226;-76
2023/10/16 01:40:25;;;;;;;0.00;0.00;;;;;;;;;;1725453;28;20196;-76
2023/10/16 01:41:18;;;;;;;0.00;0.00;;;;;;;;;;1724604;28;20639;-76
2023/10/16 01:42:11;;;;;;;0.00;0.00;;;;;;;;;;1726655;28;20212;-76
2023/10/16 01:43:05;;;;;;;0.00;0.00;;;;;;;;;;1724365;28;20200;-76
2023/10/16 01:43:59;;;;;;;0.00;0.00;;;;;;;;;;1726239;28;20208;-76
2023/10/16 01:44:51;;;;;;;0.00;0.00;;;;;;;;;;1723645;28;20212;-76
2023/10/16 01:45:49;;;;;;;0.00;0.00;;;;;;;;;;1725896;28;20299;-76
2023/10/16 01:46:44;;;;;;;0.00;0.00;;;;;;;;;;1725843;28;20703;-76
2023/10/16 01:47:35;;;;;;;0.00;0.00;;;;;;;;;;1723566;28;20209;-76
2023/10/16 01:48:28;;;;;;;0.00;0.00;;;;;;;;;;1728527;28;20200;-76
2023/10/16 01:49:24;;;;;;;0.00;0.00;;;;;;;;;;1725991;28;20291;-76
2023/10/16 01:50:21;;;;;;;0.00;0.00;;;;;;;;;;1726643;28;20204;-76
2023/10/16 01:51:18;;;;;;;0.00;0.00;;;;;;;;;;1724989;28;20557;-75
2023/10/16 01:52:12;;;;;;;0.00;0.00;;;;;;;;;;1726687;28;20342;-75
2023/10/16 01:53:03;;;;;;;0.00;0.00;;;;;;;;;;1723980;28;20239;-75
2023/10/16 01:53:56;;;;;;;0.00;0.00;;;;;;;;;;1726350;28;20212;-75
2023/10/16 01:54:48;;;;;;;0.00;0.00;;;;;;;;;;1726374;28;20216;-76
2023/10/16 01:55:42;;;;;;;0.10;0.10;;;;;;;;;;1725440;28;20220;-76
2023/10/16 01:56:34;;;;;;;0.00;0.00;;;;;;;;;;1724037;28;20228;-75
2023/10/16 01:57:26;;;;;;;0.00;0.00;;;;;;;;;;1724891;28;20208;-75
2023/10/16 01:58:18;;;;;;;0.00;0.00;;;;;;;;;;1726687;28;20212;-75
2023/10/16 01:59:09;;;;;;;0.00;0.00;;;;;;;;;;1725586;28;20205;-75
2023/10/16 02:00:05;;;;;;;0.00;0.00;;;;;;;;;;1726612;28;20655;-75
2023/10/16 02:00:57;;;;;;;0.00;0.00;;;;;;;;;;1725279;28;20205;-75
2023/10/16 02:01:49;;;;;;;0.10;0.10;;;;;;;;;;1726533;28;20271;-75
2023/10/16 02:02:41;;;;;;;0.00;0.00;;;;;;;;;;1724606;28;20213;-75
2023/10/16 02:03:32;;;;;;;0.00;0.00;;;;;;;;;;1726414;28;20204;-75
2023/10/16 02:04:24;;;;;;;0.00;0.00;;;;;;;;;;1724635;28;20239;-76
2023/10/16 02:05:15;;;;;;;0.00;0.00;;;;;;;;;;1726712;28;20248;-76
2023/10/16 02:06:07;;;;;;;0.00;0.00;;;;;;;;;;1725096;28;20246;-76
2023/10/16 02:07:00;;;;;;;0.00;0.00;;;;;;;;;;1727007;28;20680;-76
2023/10/16 02:07:56;;;;;;;0.00;0.00;;;;;;;;;;1723444;28;20271;-76
2023/10/16 02:08:48;;;;;;;0.00;0.00;;;;;;;;;;1726589;28;20295;-76
2023/10/16 02:09:41;;;;;;;0.00;0.00;;;;;;;;;;1725734;28;20573;-76
2023/10/16 02:10:34;;;;;;;0.00;0.00;;;;;;;;;;1726472;28;20207;-76
2023/10/16 02:11:28;;;;;;;0.00;0.00;;;;;;;;;;1725419;28;20209;-76
2023/10/16 02:12:20;;;;;;;0.00;0.00;;;;;;;;;;1725436;28;20208;-76
2023/10/16 02:13:12;;;;;;;0.00;0.00;;;;;;;;;;1725584;28;20204;-76
2023/10/16 02:14:04;;;;;;;0.00;0.00;;;;;;;;;;1724874;28;20555;-76
2023/10/16 02:14:56;;;;;;;0.00;0.00;;;;;;;;;;1726626;28;20662;-76
2023/10/16 02:15:48;;;;;;;0.00;0.00;;;;;;;;;;1725316;28;20208;-76
2023/10/16 02:16:41;;;;;;;0.10;0.10;;;;;;;;;;1726276;28;20674;-76
2023/10/16 02:17:32;;;;;;;0.00;0.00;;;;;;;;;;1724317;28;20266;-76
2023/10/16 02:18:27;;;;;;;0.00;0.00;;;;;;;;;;1726269;28;20342;-76
2023/10/16 02:19:18;;;;;;;0.00;0.00;;;;;;;;;;1725352;28;20248;-76
2023/10/16 02:20:11;;;;;;;0.00;0.00;;;;;;;;;;1726252;28;20581;-76
2023/10/16 02:21:04;;;;;;;0.00;0.00;;;;;;;;;;1724907;28;20204;-76
2023/10/16 02:21:55;;;;;;;0.00;0.00;;;;;;;;;;1726663;28;20208;-76
2023/10/16 02:22:46;;;;;;;0.00;0.00;;;;;;;;;;1724083;28;20209;-76
2023/10/16 02:23:38;;;;;;;0.00;0.00;;;;;;;;;;1726578;28;20293;-77
2023/10/16 02:24:31;;;;;;;0.00;0.00;;;;;;;;;;1725032;28;20208;-77
2023/10/16 02:25:23;;;;;;;0.00;0.00;;;;;;;;;;1726935;28;20256;-76
2023/10/16 02:26:18;;;;;;;0.00;0.00;;;;;;;;;;1724901;28;20205;-76
2023/10/16 02:27:11;;;;;;;0.00;0.00;;;;;;;;;;1726268;28;20480;-76
2023/10/16 02:28:07;;;;;;;0.00;0.00;;;;;;;;;;1724270;28;20208;-76
2023/10/16 02:29:00;;;;;;;0.00;0.00;;;;;;;;;;1725767;28;20212;-76
2023/10/16 02:29:52;;;;;;;0.00;0.00;;;;;;;;;;1726645;28;20212;-76
2023/10/16 02:30:46;;;;;;;0.00;0.00;;;;;;;;;;1725096;28;20235;-76
2023/10/16 02:31:39;;;;;;;0.00;0.00;;;;;;;;;;1724517;28;20205;-76
2023/10/16 02:32:30;;;;;;;0.00;0.00;;;;;;;;;;1724226;28;20208;-76
2023/10/16 02:33:26;;;;;;;0.03;0.03;;;;;;;;;;1726375;28;20294;-76
2023/10/16 02:34:22;;;;;;;0.00;0.00;;;;;;;;;;1724092;28;20271;-76
2023/10/16 02:35:13;;;;;;;0.00;0.00;;;;;;;;;;1726548;28;20251;-76
2023/10/16 02:36:07;;;;;;;0.00;0.00;;;;;;;;;;1724977;28;20285;-77
2023/10/16 02:37:00;;;;;;;0.00;0.00;;;;;;;;;;1726531;28;20791;-77
2023/10/16 02:37:53;;;;;;;0.00;0.00;;;;;;;;;;1723682;28;20271;-77
2023/10/16 02:38:47;;;;;;;0.00;0.00;;;;;;;;;;1726399;28;20645;-76
2023/10/16 02:39:38;;;;;;;0.00;0.00;;;;;;;;;;1724210;28;20228;-76
2023/10/16 02:40:32;;;;;;;0.00;0.00;;;;;;;;;;1726738;28;20688;-76
2023/10/16 02:41:26;;;;;;;0.00;0.00;;;;;;;;;;1725401;28;20306;-76
2023/10/16 02:42:17;;;;;;;0.00;0.00;;;;;;;;;;1725902;28;20669;-76
2023/10/16 02:43:13;;;;;;;0.00;0.00;;;;;;;;;;1724661;28;20550;-76
2023/10/16 02:44:06;;;;;;;0.00;0.00;;;;;;;;;;1725689;28;20647;-76
2023/10/16 02:44:58;;;;;;;0.00;0.00;;;;;;;;;;1726539;28;20208;-76
2023/10/16 02:45:52;;;;;;;0.00;0.00;;;;;;;;;;1721431;28;20217;-76
2023/10/16 02:46:44;;;;;;;0.00;0.00;;;;;;;;;;1726396;28;20216;-76
2023/10/16 02:47:37;;;;;;;0.00;0.00;;;;;;;;;;1724124;28;20581;-76
2023/10/16 02:48:29;;;;;;;0.00;0.00;;;;;;;;;;1728451;28;20610;-76
2023/10/16 02:49:22;;;;;;;0.03;0.03;;;;;;;;;;1726439;28;20713;-76
2023/10/16 02:50:14;;;;;;;0.00;0.00;;;;;;;;;;1726467;28;20215;-76
2023/10/16 02:51:07;;;;;;;0.00;0.00;;;;;;;;;;1724868;28;20223;-75
2023/10/16 02:51:58;;;;;;;0.00;0.00;;;;;;;;;;1726368;28;20243;-75
2023/10/16 02:52:49;;;;;;;0.00;0.00;;;;;;;;;;1723572;28;20238;-75
2023/10/16 02:53:41;;;;;;;0.00;0.00;;;;;;;;;;1726223;28;20208;-75
2023/10/16 02:54:32;;;;;;;0.00;0.00;;;;;;;;;;1724773;28;20219;-75
2023/10/16 02:55:23;;;;;;;0.00;0.00;;;;;;;;;;1725684;28;20204;-75
2023/10/16 02:56:17;;;;;;;0.00;0.00;;;;;;;;;;1723152;28;20541;-75
2023/10/16 02:57:10;;;;;;;0.00;0.00;;;;;;;;;;1726399;28;20244;-76
2023/10/16 02:58:04;;;;;;;0.00;0.00;;;;;;;;;;1724315;28;20652;-76
2023/10/16 02:58:56;;;;;;;0.00;0.00;;;;;;;;;;1720663;28;20201;-76
2023/10/16 02:59:47;;;;;;;0.00;0.00;;;;;;;;;;1722511;28;20297;-76
2023/10/16 03:00:44;;;;;;;0.00;0.00;;;;;;;;;;1726426;28;20607;-76
2023/10/16 03:01:39;;;;;;;0.00;0.00;;;;;;;;;;1726200;28;20314;-76
2023/10/16 03:02:33;;;;;;;0.00;0.00;;;;;;;;;;1723852;28;20738;-76
2023/10/16 03:03:26;;;;;;;0.00;0.00;;;;;;;;;;1726281;28;20205;-76
2023/10/16 03:04:18;;;;;;;0.00;0.00;;;;;;;;;;1724627;28;20213;-76
2023/10/16 03:05:11;;;;;;;0.00;0.00;;;;;;;;;;1726644;28;20207;-76
2023/10/16 03:06:03;;;;;;;0.00;0.00;;;;;;;;;;1725424;28;20264;-76
2023/10/16 03:06:55;;;;;;;0.00;0.00;;;;;;;;;;1725893;28;20214;-76
2023/10/16 03:07:46;;;;;;;0.00;0.00;;;;;;;;;;1724091;28;20223;-76
2023/10/16 03:08:38;;;;;;;0.00;0.00;;;;;;;;;;1726018;28;20638;-76
2023/10/16 03:09:30;;;;;;;0.00;0.00;;;;;;;;;;1725092;28;20200;-75
2023/10/16 03:10:22;;;;;;;0.00;0.00;;;;;;;;;;1725057;28;20243;-75
2023/10/16 03:11:13;;;;;;;0.00;0.00;;;;;;;;;;1724665;28;20212;-76
2023/10/16 03:12:08;;;;;;;0.00;0.00;;;;;;;;;;1726250;28;20299;-76
2023/10/16 03:13:05;;;;;;;0.00;0.00;;;;;;;;;;1724820;28;20208;-76
2023/10/16 03:13:59;;;;;;;0.00;0.00;;;;;;;;;;1721238;28;20193;-76
2023/10/16 03:14:56;;;;;;;0.00;0.00;;;;;;;;;;1725395;28;20310;-76
2023/10/16 03:15:47;;;;;;;0.00;0.00;;;;;;;;;;1725629;28;20185;-76
2023/10/16 03:16:41;;;;;;;0.00;0.00;;;;;;;;;;1725913;28;20214;-76
2023/10/16 03:17:34;;;;;;;0.00;0.00;;;;;;;;;;1724013;28;20538;-76
2023/10/16 03:18:28;;;;;;;0.00;0.00;;;;;;;;;;1725946;28;20236;-76
2023/10/16 03:19:21;;;;;;;0.00;0.00;;;;;;;;;;1723594;28;20369;-76
2023/10/16 03:20:19;;;;;;;0.00;0.00;;;;;;;;;;1725354;28;20228;-76
2023/10/16 03:22:33;;;;;;;0.00;0.00;;;;;;;;;;1747260;27;20555;-63
2023/10/16 03:23:24;;;;;;;0.00;0.00;;;;;;;;;;1744145;28;20214;-63
2023/10/16 03:24:19;;;;;;;0.00;0.00;;;;;;;;;;1744634;28;20631;-62
2023/10/16 03:25:24;;;;;;;0.00;0.00;;;;;;;;;;1744204;28;20206;-64
2023/10/16 03:26:22;;;;;;;0.00;0.00;;;;;;;;;;1743757;28;20267;-63
2023/10/16 03:27:26;;;;;;;0.00;0.00;;;;;;;;;;1744080;28;20210;-63
2023/10/16 03:28:19;;;;;;;0.00;0.00;;;;;;;;;;1744216;28;20202;-62
2023/10/16 03:29:10;;;;;;;0.00;0.00;;;;;;;;;;1743586;28;20383;-62
2023/10/16 03:30:01;;;;;;;0.00;0.00;;;;;;;;;;1744753;28;20206;-63
2023/10/16 03:30:53;;;;;;;0.00;0.00;;;;;;;;;;1744045;28;20212;-63
2023/10/16 03:31:44;;;;;;;0.00;0.00;;;;;;;;;;1744187;28;20355;-62
2023/10/16 03:32:35;;;;;;;0.00;0.00;;;;;;;;;;1743983;28;20194;-63
2023/10/16 03:33:27;;;;;;;0.00;0.00;;;;;;;;;;1744262;28;20690;-62
2023/10/16 03:34:21;;;;;;;0.10;0.10;;;;;;;;;;1743356;28;20210;-63
2023/10/16 03:35:15;;;;;;;0.00;0.00;;;;;;;;;;1744162;28;20584;-62
2023/10/16 03:36:09;;;;;;;0.00;0.00;;;;;;;;;;1743726;28;20268;-62
2023/10/16 03:37:03;;;;;;;0.00;0.00;;;;;;;;;;1744626;28;20214;-63
2023/10/16 03:37:56;;;;;;;0.00;0.00;;;;;;;;;;1743209;28;20209;-63
2023/10/16 03:38:50;;;;;;;0.00;0.00;;;;;;;;;;1744670;28;20211;-63
2023/10/16 03:39:41;;;;;;;0.00;0.00;;;;;;;;;;1744002;28;20245;-63
2023/10/16 03:40:32;;;;;;;0.00;0.00;;;;;;;;;;1744335;28;20301;-63
2023/10/16 03:41:31;;;;;;;0.00;0.00;;;;;;;;;;1743755;28;20198;-63
2023/10/16 03:42:23;;;;;;;0.00;0.00;;;;;;;;;;1743939;28;20581;-62
2023/10/16 03:43:14;;;;;;;0.00;0.00;;;;;;;;;;1744526;28;20240;-63
2023/10/16 03:44:14;;;;;;;0.20;0.20;;;;;;;;;;1743373;28;20209;-62
2023/10/16 03:45:05;;;;;;;0.00;0.00;;;;;;;;;;1744515;28;20202;-62
2023/10/16 03:45:58;;;;;;;0.00;0.00;;;;;;;;;;1744079;28;20652;-63
2023/10/16 03:46:50;;;;;;;0.00;0.00;;;;;;;;;;1744410;28;20321;-63
2023/10/16 03:47:42;;;;;;;0.00;0.00;;;;;;;;;;1743724;28;20209;-62
2023/10/16 03:48:35;;;;;;;0.00;0.00;;;;;;;;;;1744358;28;20655;-63
2023/10/16 03:49:26;;;;;;;0.00;0.00;;;;;;;;;;1743890;28;20225;-63
2023/10/16 03:50:23;;;;;;;0.00;0.00;;;;;;;;;;1743732;28;20710;-63
2023/10/16 03:51:16;;;;;;;0.00;0.00;;;;;;;;;;1743706;28;20202;-63
2023/10/16 03:52:08;;;;;;;0.00;0.00;;;;;;;;;;1744082;28;20206;-63
2023/10/16 03:53:01;;;;;;;0.00;0.00;;;;;;;;;;1743951;28;20206;-63
2023/10/16 03:53:56;;;;;;;0.00;0.00;;;;;;;;;;1744038;28;20581;-63
2023/10/16 03:54:47;;;;;;;0.00;0.00;;;;;;;;;;1743599;28;20230;-62
2023/10/16 03:55:43;;;;;;;0.00;0.00;;;;;;;;;;1741984;28;20203;-62
2023/10/16 03:56:35;;;;;;;0.00;0.00;;;;;;;;;;1742818;28;20554;-63
2023/10/16 03:57:30;;;;;;;0.00;0.00;;;;;;;;;;1743803;28;20203;-63
2023/10/16 03:58:22;;;;;;;0.00;0.00;;;;;;;;;;1744007;28;20736;-62
2023/10/16 03:59:15;;;;;;;0.00;0.00;;;;;;;;;;1743662;28;20400;-62
2023/10/16 04:00:14;;;;;;;0.00;0.00;;;;;;;;;;1744317;28;20206;-62
2023/10/16 04:01:08;;;;;;;0.00;0.00;;;;;;;;;;1744048;28;20209;-63
2023/10/16 04:02:03;;;;;;;0.00;0.00;;;;;;;;;;1744541;28;20206;-63
2023/10/16 04:02:59;;;;;;;0.00;0.00;;;;;;;;;;1743424;28;20633;-63
2023/10/16 04:03:56;;;;;;;0.00;0.00;;;;;;;;;;1744049;28;20256;-63
2023/10/16 04:04:48;;;;;;;0.00;0.00;;;;;;;;;;1743701;28;20252;-63
2023/10/16 04:05:45;;;;;;;0.00;0.00;;;;;;;;;;1744158;28;20583;-62
2023/10/16 04:06:39;;;;;;;0.00;0.00;;;;;;;;;;1743535;28;20769;-62
2023/10/16 04:07:31;;;;;;;0.00;0.00;;;;;;;;;;1743879;28;20276;-63
2023/10/16 04:08:25;;;;;;;0.00;0.00;;;;;;;;;;1744289;28;20202;-62
2023/10/16 04:09:17;;;;;;;0.00;0.00;;;;;;;;;;1743417;28;20268;-62
2023/10/16 04:10:21;;;;;;;0.05;0.05;;;;;;;;;;1744375;28;20206;-62
2023/10/16 04:11:13;;;;;;;0.00;0.00;;;;;;;;;;1743288;28;20203;-62
2023/10/16 04:12:06;;;;;;;0.00;0.00;;;;;;;;;;1744784;28;20297;-62
2023/10/16 04:12:58;;;;;;;0.00;0.00;;;;;;;;;;1743769;28;20289;-62
2023/10/16 04:13:52;;;;;;;0.03;0.03;;;;;;;;;;1744153;28;20214;-63
2023/10/16 04:14:50;;;;;;;0.00;0.00;;;;;;;;;;1743676;28;20230;-62
2023/10/16 04:16:55;;;;;;;0.00;0.00;;;;;;;;;;1743434;28;20283;-62
2023/10/16 04:17:50;;;;;;;0.00;0.00;;;;;;;;;;1743941;28;20961;-62
2023/10/16 04:18:41;;;;;;;0.00;0.00;;;;;;;;;;1744592;28;20209;-62
2023/10/16 04:19:36;;;;;;;0.00;0.00;;;;;;;;;;1743373;28;20696;-62
2023/10/16 04:21:43;;;;;;;0.00;0.00;;;;;;;;;;1743810;28;20681;-62
2023/10/16 04:22:44;;;;;;;0.00;0.00;;;;;;;;;;1740808;28;20300;-62
2023/10/16 04:23:38;;;;;;;0.00;0.00;;;;;;;;;;1743553;28;20332;-63
2023/10/16 04:24:40;;;;;;;0.00;0.00;;;;;;;;;;1743630;28;20221;-62
2023/10/16 04:25:45;;;;;;;0.00;0.00;;;;;;;;;;1744203;28;20264;-62
2023/10/16 04:26:47;;;;;;;0.00;0.00;;;;;;;;;;1743789;28;20732;-63
2023/10/16 04:27:38;;;;;;;0.00;0.00;;;;;;;;;;1741214;28;20260;-62
2023/10/16 04:28:30;;;;;;;0.00;0.00;;;;;;;;;;1744634;28;20202;-63
2023/10/16 04:29:25;;;;;;;0.00;0.00;;;;;;;;;;1743818;28;20284;-63
2023/10/16 04:30:39;;;;;;;0.00;0.00;;;;;;;;;;1744533;28;20210;-62
2023/10/16 04:31:43;;;;;;;0.00;0.00;;;;;;;;;;1743680;28;20206;-63
2023/10/16 04:32:40;;;;;;;0.00;0.00;;;;;;;;;;1741015;28;20608;-62
2023/10/16 04:33:48;;;;;;;0.00;0.00;;;;;;;;;;1741741;28;20319;-62
2023/10/16 04:34:45;;;;;;;0.00;0.00;;;;;;;;;;1739147;28;20349;-62
2023/10/16 04:36:52;;;;;;;0.00;0.00;;;;;;;;;;1738471;28;20225;-62
2023/10/16 04:37:49;;;;;;;0.00;0.00;;;;;;;;;;1739237;28;20210;-62
2023/10/16 04:38:53;;;;;;;0.00;0.00;;;;;;;;;;1737772;28;20273;-62
2023/10/16 04:43:19;;;;;;;0.00;0.00;;;;;;;;;;1738856;28;20198;-62
2023/10/16 04:44:23;;;;;;;0.00;0.00;;;;;;;;;;1738905;28;20211;-63
2023/10/16 04:45:24;;;;;;;0.00;0.00;;;;;;;;;;1739843;28;20203;-62
2023/10/16 04:46:20;;;;;;;0.00;0.00;;;;;;;;;;1739085;28;20222;-62
2023/10/16 04:47:17;;;;;;;0.00;0.00;;;;;;;;;;1739822;28;20203;-62
2023/10/16 04:48:08;;;;;;;0.00;0.00;;;;;;;;;;1739714;28;20207;-62
2023/10/16 04:48:59;;;;;;;0.00;0.00;;;;;;;;;;1739851;28;20202;-62
2023/10/16 04:50:07;;;;;;;0.00;0.00;;;;;;;;;;1739177;28;20654;-62
2023/10/16 04:51:09;;;;;;;0.00;0.00;;;;;;;;;;1739228;28;20635;-62
2023/10/16 04:52:06;;;;;;;0.00;0.00;;;;;;;;;;1735513;28;20199;-63
2023/10/16 04:53:07;;;;;;;0.00;0.00;;;;;;;;;;1738723;28;20215;-63
2023/10/16 04:54:13;;;;;;;0.00;0.00;;;;;;;;;;1739308;28;20303;-63
2023/10/16 04:55:09;;;;;;;0.00;0.00;;;;;;;;;;1737787;28;20210;-62
2023/10/16 04:56:15;;;;;;;0.00;0.00;;;;;;;;;;1738348;28;20232;-63
2023/10/16 04:58:38;;;;;;;0.00;0.00;;;;;;;;;;1737441;28;20213;-63
2023/10/16 04:59:58;;;;;;;0.00;0.00;;;;;;;;;;1739029;28;20214;-63
2023/10/16 05:00:56;;;;;;;0.00;0.00;;;;;;;;;;1737675;28;20211;-64
2023/10/16 05:02:10;;;;;;;0.00;0.00;;;;;;;;;;1739290;28;20253;-62
2023/10/16 05:03:21;;;;;;;0.00;0.00;;;;;;;;;;1739092;28;20689;-63
2023/10/16 05:04:49;;;;;;;0.00;0.00;;;;;;;;;;1735489;28;20309;-63
2023/10/16 05:05:56;;;;;;;0.00;0.00;;;;;;;;;;1736110;28;20207;-63
2023/10/16 05:06:56;;;;;;;0.00;0.00;;;;;;;;;;1737837;28;20218;-63
2023/10/16 05:07:53;;;;;;;0.00;0.00;;;;;;;;;;1738822;28;20249;-63
2023/10/16 05:13:39;;;;;;;0.00;0.00;;;;;;;;;;1738828;28;20740;-63
2023/10/16 05:15:20;;;;;;;0.00;0.00;;;;;;;;;;1738354;28;20207;-63
2023/10/16 05:17:21;;;;;;;0.00;0.00;;;;;;;;;;1735020;28;20573;-63
2023/10/16 05:18:12;;;;;;;0.00;0.00;;;;;;;;;;1739223;28;20221;-63
2023/10/16 05:19:03;;;;;;;0.00;0.00;;;;;;;;;;1739151;28;20233;-63
2023/10/16 05:20:13;;;;;;;0.00;0.00;;;;;;;;;;1738555;28;20203;-63
2023/10/16 05:21:19;;;;;;;0.00;0.00;;;;;;;;;;1736512;28;20213;-62
2023/10/16 06:14:34;;;;;;;0.00;0.00;;;;;;;;;;1737901;28;20608;-63
2023/10/16 06:15:25;;;;;;;0.00;0.00;;;;;;;;;;1738940;28;20702;-63
2023/10/16 06:16:20;;;;;;;0.00;0.00;;;;;;;;;;1737911;28;20609;-63
2023/10/16 06:17:13;;;;;;;0.00;0.00;;;;;;;;;;1739104;28;20665;-63
2023/10/16 06:18:06;;;;;;;0.00;0.00;;;;;;;;;;1738635;28;20568;-63
2023/10/16 06:18:59;;;;;;;0.00;0.00;;;;;;;;;;1737982;28;20221;-62
2023/10/16 06:19:51;;;;;;;0.10;0.10;;;;;;;;;;1737410;28;20594;-62
2023/10/16 06:20:44;;;;;;;0.00;0.00;;;;;;;;;;1738153;28;20203;-62
2023/10/16 06:21:36;;;;;;;0.00;0.00;;;;;;;;;;1738533;28;20207;-63
2023/10/16 06:22:27;;;;;;;0.00;0.00;;;;;;;;;;1737807;28;20265;-63
2023/10/16 06:23:19;;;;;;;0.00;0.00;;;;;;;;;;1738683;28;20203;-62
2023/10/16 06:24:17;;;;;;;0.00;0.00;;;;;;;;;;1738002;28;20245;-63
2023/10/16 06:25:10;;;;;;;0.00;0.00;;;;;;;;;;1738038;28;20206;-63
2023/10/16 06:26:08;;;;;;;0.00;0.00;;;;;;;;;;1738011;28;20577;-63
2023/10/16 06:27:01;;;;;;;0.00;0.00;;;;;;;;;;1738418;28;20617;-63
2023/10/16 06:27:52;;;;;;;0.00;0.00;;;;;;;;;;1738061;28;20203;-64
2023/10/16 06:28:49;;;;;;;0.00;0.00;;;;;;;;;;1738470;28;20203;-63
2023/10/16 06:29:49;;;;;;;0.00;0.00;;;;;;;;;;1738486;28;20210;-63
2023/10/16 06:30:41;;;;;;;0.00;0.00;;;;;;;;;;1734897;28;20207;-63
2023/10/16 06:31:49;;;;;;;0.00;0.00;;;;;;;;;;1738654;28;20633;-63
2023/10/16 06:32:41;;;;;;;0.00;0.00;;;;;;;;;;1735712;28;20211;-63
2023/10/16 06:33:33;;;;;;;0.00;0.00;;;;;;;;;;1738688;28;20203;-63
2023/10/16 06:34:24;;;;;;;0.00;0.00;;;;;;;;;;1737498;28;20334;-63
2023/10/16 06:35:18;;;;;;;0.00;0.00;;;;;;;;;;1738619;28;20498;-64
2023/10/16 06:36:10;;;;;;;0.00;0.00;;;;;;;;;;1738470;28;20211;-63